Nearby METAR Reports

 

KISM - Kissimmee/Orland, Florida, USA
Distance from station: NW 19mi, 31km
Updated: 05/27/2018 11:09am
Overcast
Overcast
 Wind from SE
Wind: SE 14 mph , 22 km/h, Gust: 17 mph , 28 km/h
Temperature: 77°F , 25°C
Dew Point: 75°F , 24°C
Humidity: 94%
Barometer: 29.81 inHg , 1009.5 hPa
Clouds: Overcast
Visibility: 10 miles , 16 km
Cloud details: Few Clouds 800 ft
Mostly cloudy 1600 ft
Overcast 4000 ft
2018/05/27 15:09 KISM 271509Z 13012G15KT 10SM FEW008 BKN016 OVC040 25/24 A2981 RMK AO2 RAE07 P0000
KMCO - Orlando, Florida, USA
Distance from station: NNW 23mi, 37km
Updated: 05/27/2018 11:14am
Light rain, Mist, Overcast
Light rain, Mist, Overcast
 Wind from SE
Wind: SE 13 mph , 20 km/h
Temperature: 75°F , 24°C
Dew Point: 75°F , 24°C
Humidity: 100%
Barometer: 29.81 inHg , 1009.5 hPa
Summary: Light rain, Mist
Clouds: Overcast
Visibility: 4 miles , 6 km
Cloud details: Partly cloudy 1800 ft
Mostly cloudy 2600 ft
Overcast 5500 ft
2018/05/27 15:14 KMCO 271514Z 13011KT 4SM R35L/6000VP6000FT -RA BR SCT018 BKN026 OVC055 24/24 A2981 RMK AO2 PK WND 15026/1454 RAB1454 P0029 T02390239
 
KORL - Orlando, Florida, USA
Distance from station: NNW 32mi, 51km
Updated: 05/27/2018 11:20am
Heavy rain, Fog, Overcast
Heavy rain, Fog, Overcast
 Wind from SE
Wind: SE 12 mph , 19 km/h, Gust: 23 mph , 37 km/h
Temperature: 77°F , 25°C
Dew Point: 75°F , 24°C
Humidity: 94%
Barometer: 29.82 inHg , 1009.8 hPa
Summary: Heavy rain, Fog
Clouds: Overcast
Visibility: 1/2 mile , 0.8 km
Cloud details: Few Clouds 1300 ft
Mostly cloudy 2100 ft
Overcast 3600 ft
2018/05/27 15:20 KORL 271520Z 14010G20KT 1/2SM R07/2200V5500FT +RA FG FEW013 BKN021 OVC036 25/24 A2982 RMK AO2 PK WND 13026/1508 RAB09 P0017 T02500239
KMLB - Melbourne, Florida, USA
Distance from station: E 32mi, 52km
Updated: 05/27/2018 10:53am
Overcast
Overcast
 Wind from SE
Wind: SE 23 mph , 37 km/h, Gust: 38 mph , 61 km/h
Temperature: 79°F , 26°C
Dew Point: 72°F , 22°C
Humidity: 79%
Barometer: 29.82 inHg , 1009.8 hPa
Clouds: Overcast
Visibility: 9 miles , 14 km
Cloud details: Mostly cloudy 1600 ft
Overcast 8000 ft
2018/05/27 14:53 KMLB 271453Z 14020G33KT 9SM BKN016 OVC080 26/22 A2982 RMK AO2 PK WND 13033/1446 RAE1359 SLP098 VCSH P0000 60000 T02610222 51002
 
KGIF - Winter Haven, Florida, USA
Distance from station: W 35mi, 56km
Updated: 05/27/2018 11:02am
Light rain, Mist, Overcast
Light rain, Mist, Overcast
 Wind from ESE
Wind: ESE 16 mph , 26 km/h
Temperature: 75°F , 24°C
Dew Point: 73°F , 23°C
Humidity: 94%
Barometer: 29.79 inHg , 1008.8 hPa
Summary: Light rain, Mist
Clouds: Overcast
Visibility: 3 miles , 5 km
Cloud details: Partly cloudy 1000 ft
Mostly cloudy 1400 ft
Overcast 2600 ft
2018/05/27 15:02 KGIF 271502Z AUTO 12014KT 3SM -RA BR SCT010 BKN014 OVC026 24/23 A2979 RMK AO2 P0001 T02440233
KTIX - Titusville, Florida, USA
Distance from station: NE 35mi, 57km
Updated: 05/27/2018 10:48am
Mist, Overcast
Mist, Overcast
 Wind from SSE
Wind: SSE 18 mph , 30 km/h, Gust: 30 mph , 48 km/h
Temperature: 75°F , 24°C
Dew Point: 75°F , 24°C
Humidity: 100%
Barometer: 29.84 inHg , 1010.5 hPa
Summary: Mist
Clouds: Overcast
Visibility: 5 miles , 8 km
Cloud details: Overcast 1400 ft
2018/05/27 14:48 KTIX 271448Z 16016G26KT 5SM BR OVC014 24/24 A2984
 
KCOF - Patrick Afb/Coco, Florida, USA
Distance from station: ENE 36mi, 58km
Updated: 05/27/2018 10:56am
Clear
Clear
 Wind from SSE
Wind: SSE 28 mph , 44 km/h, Gust: 35 mph , 56 km/h
Temperature: 77°F , 25°C
Dew Point: 77°F , 25°C
Humidity: 100%
Barometer: 29.82 inHg , 1009.8 hPa
Clouds: Clear
Visibility: 9 miles , 14 km
2018/05/27 14:56 KCOF 271456Z AUTO 15024G30KT 9SM CLR 25/25 A2982 RMK AO2 PK WND 15030/36 RAB06E20DZB20E21 SLP102 P0002 60003 T02540252 50001 $
KBOW - Bartow Municipal, Florida, USA
Distance from station: WSW 38mi, 61km
Updated: 05/27/2018 10:55am
Nearby showers, Mostly cloudy
Nearby showers, Mostly cloudy
 Wind from ESE
Wind: ESE 16 mph , 26 km/h
Temperature: 73°F , 23°C
Dew Point: 73°F , 23°C
Humidity: 100%
Barometer: 29.78 inHg , 1008.5 hPa
Summary: Nearby Showers
Clouds: Mostly cloudy
Visibility: 7 miles , 11 km
Cloud details: Mostly cloudy 800 ft
Mostly cloudy 1600 ft
2018/05/27 14:55 KBOW 271455Z 12014KT 7SM VCSH BKN008 BKN016 23/23 A2978
 
KXMR - Cape Canaveral, Florida, USA
Distance from station: NE 44mi, 72km
Updated: 05/27/2018 10:56am
Mostly cloudy
Mostly cloudy
 Wind from SSE
Wind: SSE 25 mph , 41 km/h, Gust: 33 mph , 54 km/h
Temperature: 77°F , 25°C
Dew Point: 73°F , 23°C
Humidity: 89%
Barometer: 29.82 inHg , 1009.8 hPa
Clouds: Mostly cloudy
Visibility: 7 miles , 11 km
Cloud details: Few Clouds 1600 ft
Partly cloudy 2800 ft
Mostly cloudy 3400 ft
Mostly cloudy 17000 ft
2018/05/27 14:56 KXMR 271456Z AUTO 15022G29KT 7SM FEW016 SCT028 BKN034 BKN170 25/23 A2982 RMK AO2 PK WND 15032/16 SLP101 60007 T02520225 55003 FZRANO $
KTTS - Nasa Shuttle Fcl, Florida, USA
Distance from station: NE 45mi, 72km
Updated: 05/27/2018 11:15am
Mostly cloudy
Mostly cloudy
 Wind from SSE
Wind: SSE 16 mph , 26 km/h, Gust: 26 mph , 43 km/h
Temperature: 77°F , 25°C
Dew Point: 75°F , 24°C
Humidity: 94%
Barometer: 29.83 inHg , 1010.2 hPa
Clouds: Mostly cloudy
Visibility: 7 miles , 11 km
Cloud details: Mostly cloudy 1800 ft
Mostly cloudy 7500 ft
Mostly cloudy 12000 ft
2018/05/27 15:15 KTTS 271515Z AUTO 15014G23KT 7SM BKN018 BKN075 BKN120 25/24 A2983 RMK AO2 RAE14DZB14E15 SLP106
 
KSFB - Sanford/Orlando, Florida, USA
Distance from station: N 45mi, 73km
Updated: 05/27/2018 10:53am
Mist, Overcast
Mist, Overcast
 Wind from SE
Wind: SE 15 mph , 24 km/h
Temperature: 79°F , 26°C
Dew Point: 73°F , 23°C
Humidity: 84%
Barometer: 29.82 inHg , 1009.8 hPa
Summary: Mist
Clouds: Overcast
Visibility: 6 miles , 10 km
Cloud details: Partly cloudy 1200 ft
Mostly cloudy 2000 ft
Overcast 2700 ft
2018/05/27 14:53 KSFB 271453Z 13013KT 6SM BR SCT012 BKN020 OVC027 26/23 A2982 RMK AO2 RAB12E21 SLP095 P0000 60002 T02560233 58003
KLAL - Lakeland Regiona, Florida, USA
Distance from station: WSW 52mi, 84km
Updated: 05/27/2018 10:50am
Rain, Overcast
Rain, Overcast
 Wind from SE
Wind: SE 17 mph , 28 km/h, Gust: 23 mph , 37 km/h
Temperature: 75°F , 24°C
Dew Point: 75°F , 24°C
Humidity: 100%
Barometer: 29.77 inHg , 1008.1 hPa
Summary: Rain
Clouds: Overcast
Visibility: 3 miles , 5 km
Cloud details: Mostly cloudy 500 ft
Overcast 1500 ft
2018/05/27 14:50 KLAL 271450Z 13015G20KT 3SM RA BKN005 OVC015 24/24 A2977
 
KVRB - Vero Beach, Florida, USA
Distance from station: SE 57mi, 91km
Updated: 12/31/1969 7:00pm
NOT Current
unable to load KVRB data RC=404 Not Found
unable to load KVRB data RC=404 Not Found
 
KZPH - Zephyrhills, Florida, USA
Distance from station: W 60mi, 96km
Updated: 05/27/2018 11:35am
Light rain, Overcast
Light rain, Overcast
 Wind from ESE
Wind: ESE 14 mph , 22 km/h, Gust: 20 mph , 31 km/h
Temperature: 75°F , 24°C
Dew Point: 73°F , 23°C
Humidity: 94%
Barometer: 29.77 inHg , 1008.1 hPa
Summary: Light rain
Clouds: Overcast
Visibility: 3 miles , 5 km
Cloud details: Mostly cloudy 1300 ft
Overcast 1900 ft
2018/05/27 15:35 KZPH 271535Z AUTO 11012G17KT 3SM -RA BKN013 OVC019 24/23 A2977 RMK AO2 LTG DSNT S P0004 T02410231
 
KPCM - Plant City Muni, Florida, USA
Distance from station: W 61mi, 98km
Updated: 05/23/2018 4:55pm
NOT Current

 Wind from E
Wind: E 3 mph , 6 km/h
Temperature: 91°F , 33°C
Dew Point: 63°F , 17°C
Humidity: 38%
Barometer: 30.06 inHg , 1017.9 hPa
2018/05/23 20:55 KPCM 232055Z AUTO 09003KT 33/17 A3006 RMK AO2 PWINO
KLEE - Leesburg, Florida, USA
Distance from station: NW 62mi, 100km
Updated: 05/27/2018 10:53am
Overcast
Overcast
 Wind from ESE
Wind: ESE 16 mph , 26 km/h, Gust: 24 mph , 39 km/h
Temperature: 79°F , 26°C
Dew Point: 73°F , 23°C
Humidity: 84%
Barometer: 29.81 inHg , 1009.5 hPa
Clouds: Overcast
Visibility: 10 miles , 16 km
Cloud details: Mostly cloudy 1900 ft
Mostly cloudy 2700 ft
Overcast 3400 ft
2018/05/27 14:53 KLEE 271453Z 11014G21KT 10SM BKN019 BKN027 OVC034 26/23 A2981 RMK AO2 SLP091 60000 T02560233 58006
 
KOBE - Okeechobee Cty, Florida, USA
Distance from station: SSE 62mi, 100km
Updated: 05/27/2018 11:15am
Rain, Overcast
Rain, Overcast
 Wind from SE
Wind: SE 18 mph , 30 km/h, Gust: 26 mph , 43 km/h
Temperature: 77°F , 25°C
Dew Point: 72°F , 22°C
Humidity: 83%
Barometer: 29.82 inHg , 1009.8 hPa
Summary: Rain
Clouds: Overcast
Visibility: 10 miles , 16 km
Cloud details: Overcast 1600 ft
2018/05/27 15:15 KOBE 271515Z AUTO 14016G23KT 10SM RA OVC016 25/22 A2982 RMK AO2
KFPR - Fort Pierce, Florida, USA
Distance from station: SE 65mi, 104km
Updated: 12/31/1969 7:00pm
NOT Current
unable to load KFPR data RC=404 Not Found
unable to load KFPR data RC=404 Not Found
 
 
KDED - Deland, Florida, USA
Distance from station: N 66mi, 106km
Updated: 12/31/1969 7:00pm
NOT Current
unable to load KDED data RC=404 Not Found
unable to load KDED data RC=404 Not Found
 
KEVB - New Smyrna Beach, Florida, USA
Distance from station: NNE 66mi, 106km
Updated: 05/27/2018 10:47am
Rain mist, Mostly cloudy
Rain mist, Mostly cloudy
 Wind from SE
Wind: SE 16 mph , 26 km/h, Gust: 23 mph , 37 km/h
Temperature: 79°F , 26°C
Dew Point: 73°F , 23°C
Humidity: 84%
Barometer: 29.85 inHg , 1010.8 hPa
Summary: Rain Mist
Clouds: Mostly cloudy
Visibility: 6 miles , 10 km
Cloud details: Mostly cloudy 800 ft
Mostly cloudy 1900 ft
2018/05/27 14:47 KEVB 271447Z 14014G20KT 6SM RABR BKN008 BKN019 26/23 A2985